Time;durP1;ratioP1;P1;durP2;ratioP2;P2;SDS_P1;SDS_P2;PMS_P1;PMS_P2;Temp;Humidity;BMP_temperature;BMP_pressure;BME280_temperature;BME280_humidity;BME280_pressure;Samples;Min_cycle;Max_cycle;Signal;HPM_P1;HPM_P2
2022/08/07 00:00:53;;;;;;;9.30;5.10;;;;;;;21.44;nan;-24413.00;5029209;28;20237;-75
2022/08/07 00:03:19;;;;;;;10.77;5.75;;;;;;;21.39;nan;-24411.63;5029266;28;20175;-75
2022/08/07 00:05:44;;;;;;;9.30;5.65;;;;;;;21.47;nan;-24413.84;5028124;28;20710;-75
2022/08/07 00:08:10;;;;;;;10.15;5.40;;;;;;;21.65;nan;-24418.69;5028612;28;20214;-75
2022/08/07 00:10:36;;;;;;;9.73;5.70;;;;;;;21.61;nan;-24417.59;5029613;28;20186;-75
2022/08/07 00:13:03;;;;;;;9.77;5.47;;;;;;;21.60;nan;-24417.31;5029175;28;20180;-75
2022/08/07 00:15:30;;;;;;;10.38;5.93;;;;;;;21.54;nan;-24415.78;5028902;28;20276;-75
2022/08/07 00:17:55;;;;;;;9.95;5.68;;;;;;;21.60;nan;-24417.31;5029108;28;20176;-75
2022/08/07 00:20:21;;;;;;;11.27;5.90;;;;;;;21.63;nan;-24418.13;5029231;28;20175;-75
2022/08/07 00:22:46;;;;;;;10.13;5.30;;;;;;;21.42;nan;-24412.31;5029058;28;20635;-75
2022/08/07 00:25:12;;;;;;;8.40;5.45;;;;;;;21.73;nan;-24420.78;5028957;28;20183;-75
2022/08/07 00:27:38;;;;;;;11.48;5.55;;;;;;;21.54;nan;-24415.66;5029212;28;20269;-75
2022/08/07 00:30:04;;;;;;;10.60;5.40;;;;;;;21.50;nan;-24414.53;5027974;28;20252;-75
2022/08/07 00:32:29;;;;;;;8.80;5.10;;;;;;;21.47;nan;-24413.69;5029272;28;20171;-75
2022/08/07 00:34:55;;;;;;;8.95;5.47;;;;;;;21.78;nan;-24422.16;5043861;28;20242;-75
2022/08/07 00:37:20;;;;;;;10.68;6.00;;;;;;;21.62;nan;-24417.72;5028855;28;20178;-75
2022/08/07 00:39:45;;;;;;;10.88;5.70;;;;;;;21.67;nan;-24419.09;5029114;28;20599;-75
2022/08/07 00:42:11;;;;;;;10.23;5.70;;;;;;;21.30;nan;-24409.00;5028806;28;20639;-75
2022/08/07 00:44:36;;;;;;;10.00;5.72;;;;;;;21.66;nan;-24418.81;5029238;28;20171;-75
2022/08/07 00:47:03;;;;;;;7.18;4.95;;;;;;;21.30;nan;-24409.13;5028829;28;20207;-75
2022/08/07 00:49:29;;;;;;;11.38;6.18;;;;;;;21.58;nan;-24416.88;5028898;28;20171;-75
2022/08/07 00:51:54;;;;;;;9.27;5.57;;;;;;;21.29;nan;-24408.84;5028599;28;20614;-75
2022/08/07 00:54:20;;;;;;;9.95;5.47;;;;;;;21.53;nan;-24415.50;5028618;28;20203;-75
2022/08/07 00:56:46;;;;;;;7.70;5.32;;;;;;;21.14;nan;-24404.84;5029064;28;20654;-75
2022/08/07 00:59:12;;;;;;;8.32;4.97;;;;;;;21.40;nan;-24411.91;5028430;28;20175;-75
2022/08/07 01:01:37;;;;;;;11.50;6.15;;;;;;;21.24;nan;-24407.31;5029103;28;20193;-75
2022/08/07 01:04:07;;;;;;;8.82;5.60;;;;;;;21.20;nan;-24406.22;5028268;28;20225;-75
2022/08/07 01:06:32;;;;;;;13.15;6.32;;;;;;;21.00;nan;-24400.94;5029098;28;20183;-75
2022/08/07 01:08:59;;;;;;;9.40;5.68;;;;;;;20.97;nan;-24400.13;5027557;28;20238;-75
2022/08/07 01:11:25;;;;;;;9.50;5.53;;;;;;;20.94;nan;-24399.28;5029037;28;20258;-75
2022/08/07 01:13:51;;;;;;;10.38;6.25;;;;;;;20.92;nan;-24398.72;5028300;28;20229;-75
2022/08/07 01:16:17;;;;;;;10.65;6.13;;;;;;;21.25;nan;-24407.59;5028361;28;20262;-75
2022/08/07 01:18:42;;;;;;;9.27;5.57;;;;;;;21.08;nan;-24403.03;5029183;28;20545;-76
2022/08/07 01:21:16;;;;;;;9.30;5.82;;;;;;;21.00;nan;-24400.94;5028057;28;20179;-75
2022/08/07 01:23:44;;;;;;;12.82;6.53;;;;;;;21.06;nan;-24402.59;5029314;28;20258;-76
2022/08/07 01:26:12;;;;;;;10.27;6.15;;;;;;;21.08;nan;-24403.03;5027439;28;20262;-75
2022/08/07 01:28:40;;;;;;;11.48;5.38;;;;;;;21.09;nan;-24403.44;5027503;28;20199;-75
2022/08/07 01:31:06;;;;;;;10.82;6.22;;;;;;;20.85;nan;-24396.66;5027877;28;20264;-75
2022/08/07 01:33:32;;;;;;;10.07;5.22;;;;;;;20.92;nan;-24398.72;5028601;28;20262;-75
2022/08/07 01:35:59;;;;;;;11.90;6.20;;;;;;;21.07;nan;-24402.75;5028489;28;20171;-75
2022/08/07 01:38:25;;;;;;;9.85;6.03;;;;;;;21.10;nan;-24403.72;5028350;28;20614;-76
2022/08/07 01:40:53;;;;;;;8.85;5.30;;;;;;;21.07;nan;-24402.88;5028210;28;20173;-75
2022/08/07 01:43:19;;;;;;;9.57;5.32;;;;;;;20.83;nan;-24396.09;5027704;28;20176;-75
2022/08/07 01:45:46;;;;;;;9.27;5.57;;;;;;;21.12;nan;-24404.28;5029153;28;20531;-76
2022/08/07 01:48:11;;;;;;;10.32;5.43;;;;;;;21.06;nan;-24402.47;5032175;28;20203;-75
2022/08/07 01:50:38;;;;;;;9.00;5.47;;;;;;;20.93;nan;-24399.00;5033326;28;20193;-75
2022/08/07 01:53:06;;;;;;;8.57;5.50;;;;;;;20.85;nan;-24396.78;5030380;28;20175;-75
2022/08/07 01:55:41;;;;;;;8.88;5.03;;;;;;;20.90;nan;-24398.03;5031871;28;20171;-76
2022/08/07 01:58:09;;;;;;;8.85;5.40;;;;;;;20.86;nan;-24397.06;5029913;28;20246;-75
2022/08/07 02:00:38;;;;;;;9.38;5.13;;;;;;;20.83;nan;-24396.22;5031270;28;20168;-75
2022/08/07 02:03:09;;;;;;;9.75;5.10;;;;;;;20.53;nan;-24388.03;5031366;28;20167;-75
2022/08/07 02:05:43;;;;;;;7.63;5.28;;;;;;;20.46;nan;-24386.09;5031050;28;20175;-75
2022/08/07 02:08:11;;;;;;;8.15;5.25;;;;;;;20.81;nan;-24395.66;5030624;28;20342;-75
2022/08/07 02:10:39;;;;;;;7.88;4.80;;;;;;;20.54;nan;-24388.19;5031906;28;20179;-75
2022/08/07 02:13:05;;;;;;;8.80;4.53;;;;;;;20.96;nan;-24399.84;5031724;28;20168;-75
2022/08/07 02:15:32;;;;;;;8.40;5.10;;;;;;;20.72;nan;-24393.31;5032342;28;20199;-75
2022/08/07 02:18:01;;;;;;;8.10;4.95;;;;;;;20.58;nan;-24389.28;5031246;28;20710;-75
2022/08/07 02:20:29;;;;;;;9.82;5.20;;;;;;;20.52;nan;-24387.75;5031268;28;20182;-75
2022/08/07 02:23:00;;;;;;;8.45;5.20;;;;;;;20.87;nan;-24397.19;5031606;28;20190;-75
2022/08/07 02:25:27;;;;;;;8.77;5.18;;;;;;;20.81;nan;-24395.53;5031147;28;20179;-75
2022/08/07 02:27:55;;;;;;;9.00;4.97;;;;;;;20.89;nan;-24397.91;5030609;28;20726;-75
2022/08/07 02:30:22;;;;;;;7.75;5.00;;;;;;;20.83;nan;-24396.09;5030751;28;20171;-75
2022/08/07 02:32:50;;;;;;;7.75;4.63;;;;;;;20.85;nan;-24396.66;5031468;28;20175;-75
2022/08/07 02:35:17;;;;;;;7.78;4.95;;;;;;;20.54;nan;-24388.19;5030674;28;20186;-75
2022/08/07 02:37:45;;;;;;;8.82;5.20;;;;;;;20.76;nan;-24394.28;5030247;28;20171;-75
2022/08/07 02:40:11;;;;;;;7.30;4.32;;;;;;;20.80;nan;-24395.41;5030610;28;20226;-75
2022/08/07 02:42:38;;;;;;;9.18;5.38;;;;;;;20.65;nan;-24391.38;5031652;28;20195;-75
2022/08/07 02:45:07;;;;;;;8.35;5.32;;;;;;;20.39;nan;-24384.16;5031557;28;20172;-75
2022/08/07 02:47:33;;;;;;;7.47;4.57;;;;;;;20.58;nan;-24389.28;5030965;28;20203;-75
2022/08/07 02:49:59;;;;;;;8.80;5.00;;;;;;;20.65;nan;-24391.38;5030345;28;20263;-75
2022/08/07 02:52:40;;;;;;;7.75;5.03;;;;;;;20.51;nan;-24387.50;5030962;28;20174;-75
2022/08/07 02:55:17;;;;;;;9.48;4.93;;;;;;;20.54;nan;-24388.19;5029160;28;20175;-75
2022/08/07 02:57:45;;;;;;;7.78;4.53;;;;;;;20.41;nan;-24384.56;5029815;28;20171;-75
2022/08/07 03:00:11;;;;;;;8.13;5.05;;;;;;;20.64;nan;-24391.09;5029865;28;20202;-75
2022/08/07 03:02:40;;;;;;;8.32;4.80;;;;;;;20.71;nan;-24393.03;5031072;28;20657;-75
2022/08/07 03:05:07;;;;;;;8.60;5.00;;;;;;;20.70;nan;-24392.63;5030191;28;20180;-75
2022/08/07 03:07:33;;;;;;;9.20;5.00;;;;;;;20.64;nan;-24391.09;5030557;28;20194;-75
2022/08/07 03:09:59;;;;;;;8.55;4.63;;;;;;;20.81;nan;-24395.53;5029979;28;20248;-75
2022/08/07 03:12:27;;;;;;;7.85;4.40;;;;;;;20.90;nan;-24398.03;5031028;28;20225;-75
2022/08/07 03:14:55;;;;;;;9.60;4.90;;;;;;;20.91;nan;-24398.44;5031259;28;20211;-75
2022/08/07 03:17:21;;;;;;;9.52;4.82;;;;;;;20.96;nan;-24399.69;5029133;28;20593;-75
2022/08/07 03:19:48;;;;;;;8.52;5.22;;;;;;;20.96;nan;-24399.69;5031000;28;20237;-75
2022/08/07 03:22:16;;;;;;;7.18;4.78;;;;;;;21.04;nan;-24401.91;5029760;28;20800;-75
2022/08/07 03:24:41;;;;;;;8.27;4.57;;;;;;;21.02;nan;-24401.34;5030976;28;20175;-75
2022/08/07 03:27:08;;;;;;;8.90;5.13;;;;;;;20.73;nan;-24393.59;5029320;28;20207;-75
2022/08/07 03:29:41;;;;;;;8.02;5.18;;;;;;;20.58;nan;-24389.28;5030389;28;20212;-75
2022/08/07 03:32:10;;;;;;;8.77;5.03;;;;;;;20.90;nan;-24398.16;5028195;28;20657;-75
2022/08/07 03:34:38;;;;;;;8.23;4.82;;;;;;;21.07;nan;-24402.88;5030324;28;20171;-75
2022/08/07 03:37:04;;;;;;;9.02;5.15;;;;;;;21.33;nan;-24409.97;5029682;28;20214;-75
2022/08/07 03:39:33;;;;;;;8.40;5.28;;;;;;;21.89;nan;-24425.34;5029979;28;20179;-75
2022/08/07 03:42:01;;;;;;;7.60;5.05;;;;;;;22.19;nan;-24433.38;5030407;28;20191;-76
2022/08/07 03:44:27;;;;;;;8.02;4.72;;;;;;;22.28;nan;-24436.00;5030364;28;20258;-75
2022/08/07 03:46:52;;;;;;;7.53;5.07;;;;;;;21.99;nan;-24427.97;5030213;28;20613;-75
2022/08/07 03:49:18;;;;;;;9.88;5.10;;;;;;;22.06;nan;-24429.78;5028553;28;20667;-75
2022/08/07 03:51:43;;;;;;;7.93;4.70;;;;;;;22.60;nan;-24444.72;5030880;28;20178;-75
2022/08/07 03:54:09;;;;;;;8.48;5.10;;;;;;;23.23;nan;-24461.84;5028936;28;20551;-76
2022/08/07 03:56:37;;;;;;;10.60;5.00;;;;;;;23.79;nan;-24477.19;5030128;28;20734;-76
2022/08/07 03:59:05;;;;;;;9.40;4.85;;;;;;;24.47;nan;-24495.66;5029013;28;20654;-76
2022/08/07 04:01:32;;;;;;;8.00;5.15;;;;;;;24.86;nan;-24506.28;5030575;28;20183;-76
2022/08/07 04:03:58;;;;;;;6.68;4.07;;;;;;;25.27;nan;-24517.44;5030149;28;20174;-77
2022/08/07 04:06:24;;;;;;;7.68;4.68;;;;;;;24.96;nan;-24509.19;5029124;28;20241;-76
2022/08/07 04:08:51;;;;;;;10.38;5.55;;;;;;;24.23;nan;-24489.06;5029006;28;20203;-76
2022/08/07 04:11:16;;;;;;;7.60;5.10;;;;;;;23.82;nan;-24478.00;5029086;28;20215;-76
2022/08/07 04:13:45;;;;;;;7.97;5.03;;;;;;;23.39;nan;-24466.13;5029744;28;20257;-76
2022/08/07 04:16:11;;;;;;;7.78;4.80;;;;;;;23.10;nan;-24458.25;5027568;28;20563;-76
2022/08/07 04:18:37;;;;;;;8.23;4.85;;;;;;;22.74;nan;-24448.44;5029924;28;20178;-76
2022/08/07 04:21:03;;;;;;;8.35;4.75;;;;;;;22.90;nan;-24452.88;5027356;28;20183;-76
2022/08/07 04:23:30;;;;;;;8.20;5.00;;;;;;;22.89;nan;-24452.72;5029529;28;20179;-76
2022/08/07 04:25:56;;;;;;;8.18;4.78;;;;;;;22.94;nan;-24453.84;5029728;28;20179;-76
2022/08/07 04:28:21;;;;;;;7.45;4.88;;;;;;;23.00;nan;-24455.63;5028176;28;20206;-76
2022/08/07 04:30:48;;;;;;;7.97;5.13;;;;;;;23.06;nan;-24457.31;5029487;28;20175;-76
2022/08/07 04:33:13;;;;;;;9.10;5.32;;;;;;;23.02;nan;-24456.19;5028787;28;20551;-76
2022/08/07 04:35:40;;;;;;;8.50;5.40;;;;;;;23.23;nan;-24461.84;5028003;28;20187;-76
2022/08/07 04:38:09;;;;;;;11.00;5.63;;;;;;;23.31;nan;-24464.19;5029160;28;20179;-76
2022/08/07 04:40:38;;;;;;;8.20;4.82;;;;;;;23.21;nan;-24461.31;5029643;28;20167;-76
2022/08/07 04:43:04;;;;;;;8.77;5.43;;;;;;;23.55;nan;-24470.69;5029418;28;20266;-76
2022/08/07 04:45:50;;;;;;;7.53;4.95;;;;;;;23.72;nan;-24475.38;5029759;28;20582;-75
2022/08/07 04:48:29;;;;;;;8.88;5.20;;;;;;;23.61;nan;-24472.22;5027001;28;20374;-76
2022/08/07 04:51:08;;;;;;;7.88;4.78;;;;;;;23.82;nan;-24478.00;5023502;28;20175;-76
2022/08/07 04:53:45;;;;;;;8.13;5.55;;;;;;;23.93;nan;-24480.91;5023581;28;20175;-75
2022/08/07 04:56:20;;;;;;;8.90;5.53;;;;;;;23.65;nan;-24473.31;5021069;28;20178;-76
2022/08/07 04:59:15;;;;;;;7.20;4.47;;;;;;;23.82;nan;-24478.00;5023029;28;20232;-76
2022/08/07 05:02:00;;;;;;;6.93;4.13;;;;;;;23.93;nan;-24480.91;5022017;28;20250;-76
2022/08/07 05:04:56;;;;;;;7.57;4.88;;;;;;;23.99;nan;-24482.72;5022857;28;20175;-76
2022/08/07 05:07:27;;;;;;;7.68;5.10;;;;;;;23.87;nan;-24479.38;5037827;28;20879;-76
2022/08/07 05:09:53;;;;;;;9.35;5.68;;;;;;;24.06;nan;-24484.50;5037496;28;20210;-76
2022/08/07 05:12:25;;;;;;;9.60;5.50;;;;;;;24.06;nan;-24484.50;5022256;28;20222;-76
2022/08/07 05:14:53;;;;;;;9.52;5.72;;;;;;;24.00;nan;-24482.84;5023771;28;20237;-76
2022/08/07 05:17:21;;;;;;;9.70;5.22;;;;;;;24.10;nan;-24485.59;5021577;28;20662;-76
2022/08/07 05:19:50;;;;;;;8.77;5.20;;;;;;;24.00;nan;-24482.97;5023757;28;20635;-76
2022/08/07 05:22:19;;;;;;;10.00;5.90;;;;;;;23.94;nan;-24481.19;5024818;28;20266;-76
2022/08/07 05:24:46;;;;;;;10.13;6.05;;;;;;;24.14;nan;-24486.84;5027467;28;20183;-76
2022/08/07 05:27:13;;;;;;;9.68;5.70;;;;;;;24.05;nan;-24484.22;5027629;28;20269;-76
2022/08/07 05:29:41;;;;;;;10.18;6.18;;;;;;;24.35;nan;-24492.34;5027112;28;20187;-75
2022/08/07 05:32:08;;;;;;;11.82;6.22;;;;;;;23.61;nan;-24472.34;5027131;28;20175;-76
2022/08/07 05:34:35;;;;;;;9.50;5.90;;;;;;;24.44;nan;-24494.97;5027819;28;20187;-76
2022/08/07 05:37:02;;;;;;;9.52;5.82;;;;;;;24.84;nan;-24505.88;5027145;28;20532;-76
2022/08/07 05:39:28;;;;;;;9.32;5.82;;;;;;;24.75;nan;-24503.25;5027467;28;20272;-76
2022/08/07 05:41:54;;;;;;;11.02;6.43;;;;;;;25.06;nan;-24511.91;5027884;28;20237;-75
2022/08/07 05:44:20;;;;;;;10.07;6.07;;;;;;;24.65;nan;-24500.63;5026333;28;20175;-76
2022/08/07 05:46:50;;;;;;;10.93;6.35;;;;;;;25.01;nan;-24510.41;5027913;28;20267;-76
2022/08/07 05:49:16;;;;;;;8.88;5.40;;;;;;;25.09;nan;-24512.63;5027295;28;22571;-76
2022/08/07 05:51:44;;;;;;;8.85;5.43;;;;;;;25.01;nan;-24510.41;5026543;28;20186;-76
2022/08/07 05:54:10;;;;;;;10.02;5.43;;;;;;;24.79;nan;-24504.34;5026746;28;20715;-76
2022/08/07 05:56:39;;;;;;;8.73;5.82;;;;;;;25.24;nan;-24516.75;5025947;28;20191;-76
2022/08/07 05:59:08;;;;;;;10.43;5.40;;;;;;;25.13;nan;-24513.72;5025970;28;20187;-76
2022/08/07 06:01:37;;;;;;;7.53;5.03;;;;;;;25.45;nan;-24522.38;5027306;28;20179;-76
2022/08/07 06:04:03;;;;;;;10.73;5.18;;;;;;;25.70;nan;-24529.25;5026426;28;20175;-76
2022/08/07 06:06:32;;;;;;;9.65;5.30;;;;;;;26.10;nan;-24539.97;5026655;28;20168;-76
2022/08/07 06:08:57;;;;;;;9.02;5.75;;;;;;;26.54;nan;-24551.94;5026954;28;20593;-76
2022/08/07 06:11:24;;;;;;;7.50;5.25;;;;;;;26.62;nan;-24554.13;5026250;28;20214;-76
2022/08/07 06:13:49;;;;;;;8.65;5.00;;;;;;;26.95;nan;-24563.19;5027013;28;20713;-76
2022/08/07 06:16:16;;;;;;;8.45;4.97;;;;;;;27.37;nan;-24574.44;5026925;28;20191;-76
2022/08/07 06:18:43;;;;;;;10.75;5.22;;;;;;;27.43;nan;-24576.22;5026233;28;20175;-76
2022/08/07 06:21:10;;;;;;;7.07;5.20;;;;;;;27.81;nan;-24586.34;5025834;28;20187;-76
2022/08/07 06:23:36;;;;;;;8.48;5.40;;;;;;;28.28;nan;-24599.09;5026750;28;20229;-76
2022/08/07 06:26:03;;;;;;;7.50;5.15;;;;;;;28.58;nan;-24607.28;5026917;28;20186;-76
2022/08/07 06:28:29;;;;;;;9.88;5.75;;;;;;;29.02;nan;-24619.06;5025998;28;20815;-76
2022/08/07 06:30:55;;;;;;;6.95;4.60;;;;;;;28.90;nan;-24616.06;5025855;28;20171;-74
2022/08/07 06:33:21;;;;;;;8.07;5.10;;;;;;;28.95;nan;-24617.41;5024848;28;20186;-74
2022/08/07 06:35:46;;;;;;;7.00;4.80;;;;;;;28.89;nan;-24615.78;5025319;28;20175;-74
2022/08/07 06:38:12;;;;;;;7.57;5.03;;;;;;;28.94;nan;-24617.16;5026349;28;20631;-74
2022/08/07 06:40:46;;;;;;;7.90;4.72;;;;;;;28.50;nan;-24605.13;5026363;28;20241;-74
2022/08/07 06:43:14;;;;;;;6.78;4.38;;;;;;;28.80;nan;-24613.31;5025898;28;20171;-74
2022/08/07 06:45:40;;;;;;;8.32;4.85;;;;;;;29.12;nan;-24621.94;5025374;28;20187;-75
2022/08/07 06:48:06;;;;;;;8.52;5.10;;;;;;;28.86;nan;-24614.97;5025698;28;20228;-75
2022/08/07 06:50:35;;;;;;;7.70;5.00;;;;;;;29.03;nan;-24619.47;5026667;28;20257;-74
2022/08/07 06:53:02;;;;;;;7.55;4.80;;;;;;;29.07;nan;-24620.56;5026212;28;20190;-75
2022/08/07 06:55:30;;;;;;;8.30;5.30;;;;;;;29.46;nan;-24630.94;5026095;28;20185;-74
2022/08/07 06:58:02;;;;;;;7.85;4.88;;;;;;;29.54;nan;-24633.25;5041085;28;20228;-75
2022/08/07 07:00:32;;;;;;;6.65;4.40;;;;;;;29.88;nan;-24642.41;5024745;28;20183;-74
2022/08/07 07:02:59;;;;;;;10.82;4.60;;;;;;;30.61;nan;-24662.16;5018164;28;20562;-74
2022/08/07 07:05:25;;;;;;;8.52;5.03;;;;;;;30.60;nan;-24661.75;5025749;28;20191;-74
2022/08/07 07:07:50;;;;;;;6.25;4.35;;;;;;;30.32;nan;-24654.13;5027694;28;20275;-74
2022/08/07 07:10:28;;;;;;;9.18;4.88;;;;;;;30.95;nan;-24671.28;5030087;28;20191;-74
2022/08/07 07:13:00;;;;;;;8.05;4.55;;;;;;;31.09;nan;-24674.97;5029887;28;20198;-74
2022/08/07 07:15:33;;;;;;;7.97;4.75;;;;;;;31.27;nan;-24679.88;5030417;28;20242;-74
2022/08/07 07:18:04;;;;;;;6.68;4.53;;;;;;;31.56;nan;-24687.75;5033078;28;20240;-75
2022/08/07 07:20:45;;;;;;;5.75;3.80;;;;;;;31.33;nan;-24681.50;5033016;28;20281;-75
2022/08/07 07:23:11;;;;;;;5.75;4.22;;;;;;;31.46;nan;-24684.91;5031990;28;20174;-75
2022/08/07 07:25:39;;;;;;;6.82;4.63;;;;;;;31.35;nan;-24682.03;5030285;28;20218;-75
2022/08/07 07:28:16;;;;;;;9.35;5.80;;;;;;;31.42;nan;-24683.94;5032383;28;20681;-74
2022/08/07 07:30:56;;;;;;;9.07;4.45;;;;;;;31.53;nan;-24686.94;5025679;28;20170;-75
2022/08/07 07:33:23;;;;;;;8.10;4.38;;;;;;;31.67;nan;-24690.63;5033096;28;20178;-74
2022/08/07 07:35:51;;;;;;;6.22;3.97;;;;;;;31.46;nan;-24685.03;5032933;28;20163;-75
2022/08/07 07:38:22;;;;;;;6.18;4.03;;;;;;;31.30;nan;-24680.69;5032994;28;20166;-75
2022/08/07 07:40:49;;;;;;;7.03;4.40;;;;;;;31.58;nan;-24688.03;5033188;28;20177;-75
2022/08/07 07:43:17;;;;;;;6.18;4.32;;;;;;;31.92;nan;-24697.41;5032112;28;20264;-75
2022/08/07 07:45:45;;;;;;;7.03;4.55;;;;;;;32.28;nan;-24707.03;5032653;28;20162;-74
2022/08/07 07:48:14;;;;;;;5.10;3.70;;;;;;;32.18;nan;-24704.34;5032636;28;20205;-74
2022/08/07 07:50:40;;;;;;;6.30;4.15;;;;;;;32.07;nan;-24701.34;5033005;28;20637;-75
2022/08/07 07:53:10;;;;;;;10.70;4.43;;;;;;;31.91;nan;-24697.13;5032649;28;20654;-75
2022/08/07 07:55:36;;;;;;;5.68;4.10;;;;;;;31.82;nan;-24694.69;5031802;28;20242;-75
2022/08/07 07:58:03;;;;;;;6.07;3.67;;;;;;;32.17;nan;-24703.94;5032482;28;20241;-75
2022/08/07 08:00:31;;;;;;;6.45;4.25;;;;;;;32.18;nan;-24704.34;5032785;28;20182;-75
2022/08/07 08:03:04;;;;;;;8.02;4.10;;;;;;;32.29;nan;-24707.31;5032456;28;20254;-75
2022/08/07 08:05:30;;;;;;;6.10;4.25;;;;;;;32.29;nan;-24707.19;5031462;28;20269;-74
2022/08/07 08:07:55;;;;;;;6.38;3.92;;;;;;;32.42;nan;-24710.72;5031538;28;20289;-75
2022/08/07 08:10:21;;;;;;;7.68;4.10;;;;;;;31.37;nan;-24682.44;5031140;28;20217;-75
2022/08/07 08:12:49;;;;;;;7.75;4.50;;;;;;;31.73;nan;-24692.25;5031821;28;20194;-75
2022/08/07 08:15:14;;;;;;;7.30;4.57;;;;;;;32.16;nan;-24703.78;5029421;28;20232;-74
2022/08/07 08:17:42;;;;;;;5.60;3.67;;;;;;;32.33;nan;-24708.41;5031016;28;20182;-75
2022/08/07 08:20:09;;;;;;;8.10;4.28;;;;;;;32.38;nan;-24709.63;5031568;28;20641;-75
2022/08/07 08:28:14;;;;;;;9.35;5.75;;;;;;;32.14;nan;-24703.13;5030854;28;20271;-75
2022/08/07 08:30:42;;;;;;;7.32;4.55;;;;;;;32.01;nan;-24699.84;5026115;28;20174;-75
2022/08/07 08:33:14;;;;;;;5.90;4.05;;;;;;;31.77;nan;-24693.19;5028437;28;20186;-75
2022/08/07 08:35:42;;;;;;;7.20;4.47;;;;;;;31.41;nan;-24683.53;5031110;28;20170;-75
2022/08/07 08:38:11;;;;;;;8.43;4.40;;;;;;;31.61;nan;-24688.84;5029469;28;20179;-75
2022/08/07 08:40:43;;;;;;;7.82;4.40;;;;;;;32.10;nan;-24702.16;5031750;28;20173;-75
2022/08/07 08:43:21;;;;;;;7.65;4.75;;;;;;;32.27;nan;-24706.66;5029551;28;20183;-74
2022/08/07 08:46:08;;;;;;;5.93;3.70;;;;;;;31.54;nan;-24687.22;5026731;28;20189;-74
2022/08/07 08:48:46;;;;;;;9.63;4.75;;;;;;;32.18;nan;-24704.34;5028462;28;20233;-74
2022/08/07 08:51:46;;;;;;;8.27;4.53;;;;;;;32.47;nan;-24712.06;5027940;28;20174;-75
2022/08/07 08:54:30;;;;;;;6.47;4.40;;;;;;;32.39;nan;-24709.91;5028902;28;20189;-75
2022/08/07 08:56:59;;;;;;;6.55;4.03;;;;;;;32.23;nan;-24705.56;5029816;28;20175;-75
2022/08/07 08:59:31;;;;;;;6.68;4.38;;;;;;;31.75;nan;-24692.78;5030313;28;20642;-76
2022/08/07 09:02:17;;;;;;;6.32;4.25;;;;;;;32.08;nan;-24701.63;5031212;28;20224;-76
2022/08/07 09:05:17;;;;;;;7.20;4.22;;;;;;;31.84;nan;-24695.09;5029764;28;20232;-75
2022/08/07 09:08:10;;;;;;;6.05;3.65;;;;;;;31.30;nan;-24680.56;5029942;28;20259;-75
2022/08/07 09:10:47;;;;;;;4.95;3.40;;;;;;;30.91;nan;-24670.22;5030408;28;20187;-76
2022/08/07 09:13:27;;;;;;;6.57;3.50;;;;;;;31.44;nan;-24684.50;5028797;28;20174;-76
2022/08/07 09:16:01;;;;;;;5.55;3.58;;;;;;;31.86;nan;-24695.63;5026262;28;20236;-76
2022/08/07 09:18:45;;;;;;;5.55;3.55;;;;;;;32.14;nan;-24703.13;5029992;28;20190;-76
2022/08/07 09:21:16;;;;;;;6.20;3.95;;;;;;;32.22;nan;-24705.28;5028283;28;20642;-76
2022/08/07 09:23:53;;;;;;;4.93;3.42;;;;;;;32.05;nan;-24700.66;5028291;28;20178;-76
2022/08/07 09:26:30;;;;;;;7.00;3.95;;;;;;;32.02;nan;-24699.97;5029761;28;20190;-76
2022/08/07 09:29:05;;;;;;;4.50;3.58;;;;;;;31.69;nan;-24691.16;5026736;28;20721;-75
2022/08/07 09:31:42;;;;;;;4.85;2.80;;;;;;;31.75;nan;-24692.78;5029395;28;20265;-76
2022/08/07 09:34:21;;;;;;;3.55;2.45;;;;;;;31.59;nan;-24688.44;5027748;28;20584;-75
2022/08/07 09:36:59;;;;;;;4.05;2.90;;;;;;;31.87;nan;-24696.03;5030369;28;20202;-75
2022/08/07 09:39:30;;;;;;;3.47;2.60;;;;;;;31.74;nan;-24692.38;5030266;28;20182;-75
2022/08/07 09:42:44;;;;;;;4.78;3.05;;;;;;;31.95;nan;-24698.22;5028876;28;20266;-76
2022/08/07 09:45:17;;;;;;;4.60;3.08;;;;;;;31.58;nan;-24688.03;5027796;28;20170;-76
2022/08/07 09:47:48;;;;;;;4.63;2.95;;;;;;;31.46;nan;-24684.91;5029571;28;20696;-76
2022/08/07 09:50:59;;;;;;;4.15;2.80;;;;;;;31.74;nan;-24692.38;5029181;28;20297;-76
2022/08/07 09:53:30;;;;;;;5.18;2.80;;;;;;;31.69;nan;-24691.03;5006776;28;20211;-75
2022/08/07 09:56:44;;;;;;;3.78;2.83;;;;;;;32.15;nan;-24703.38;5007450;28;20695;-76
2022/08/07 09:59:43;;;;;;;3.95;2.78;;;;;;;31.65;nan;-24689.94;5008349;28;20280;-75
2022/08/07 10:02:33;;;;;;;5.32;3.20;;;;;;;31.82;nan;-24694.56;5028143;28;20634;-75
2022/08/07 10:05:10;;;;;;;3.88;2.42;;;;;;;31.41;nan;-24683.69;5028676;28;20182;-75
2022/08/07 10:08:21;;;;;;;3.47;2.60;;;;;;;31.18;nan;-24677.41;5031271;28;20654;-75
2022/08/07 10:11:23;;;;;;;4.30;2.88;;;;;;;31.25;nan;-24679.19;5028599;28;20187;-75
2022/08/07 10:14:20;;;;;;;4.18;2.65;;;;;;;31.39;nan;-24683.13;5019515;28;20732;-75
2022/08/07 10:17:05;;;;;;;6.05;3.10;;;;;;;31.63;nan;-24689.53;5030558;28;20236;-75
2022/08/07 10:19:37;;;;;;;4.05;2.85;;;;;;;32.04;nan;-24700.53;5030701;28;20186;-75
2022/08/07 10:22:11;;;;;;;4.07;2.47;;;;;;;32.37;nan;-24709.50;5028645;28;20217;-75
2022/08/07 10:25:02;;;;;;;3.67;2.50;;;;;;;32.61;nan;-24715.88;5033038;28;20265;-75
2022/08/07 10:27:46;;;;;;;4.20;2.58;;;;;;;32.65;nan;-24716.97;5032667;28;20674;-75
2022/08/07 10:30:24;;;;;;;4.45;2.80;;;;;;;32.94;nan;-24724.69;5032921;28;20190;-75
2022/08/07 10:33:09;;;;;;;4.82;2.88;;;;;;;32.75;nan;-24719.53;5032572;28;20167;-75
2022/08/07 10:35:52;;;;;;;3.45;2.20;;;;;;;32.51;nan;-24713.16;5032961;28;20189;-74
2022/08/07 10:38:38;;;;;;;3.25;2.13;;;;;;;32.27;nan;-24706.66;5031880;28;20187;-75
2022/08/07 10:41:28;;;;;;;3.10;2.38;;;;;;;32.63;nan;-24716.28;5028206;28;20552;-75
2022/08/07 10:44:11;;;;;;;4.43;2.63;;;;;;;32.35;nan;-24708.94;5028456;28;20594;-76
2022/08/07 10:47:05;;;;;;;5.13;2.50;;;;;;;31.97;nan;-24698.63;5031515;28;20638;-75
2022/08/07 10:49:38;;;;;;;4.15;2.47;;;;;;;32.11;nan;-24702.44;5031108;28;20167;-75
2022/08/07 10:52:20;;;;;;;3.55;2.75;;;;;;;32.06;nan;-24701.06;5031842;28;20183;-75
2022/08/07 10:54:56;;;;;;;3.55;2.65;;;;;;;31.76;nan;-24692.94;5029763;28;20261;-75
2022/08/07 10:57:49;;;;;;;3.10;2.40;;;;;;;32.07;nan;-24701.34;5032586;28;20186;-75
2022/08/07 11:00:17;;;;;;;3.92;2.22;;;;;;;32.38;nan;-24709.75;5032511;28;20214;-75
2022/08/07 11:03:01;;;;;;;3.55;2.42;;;;;;;32.88;nan;-24723.06;5032182;28;20178;-75
2022/08/07 11:05:57;;;;;;;4.30;2.38;;;;;;;33.01;nan;-24726.44;5030533;28;20185;-75
2022/08/07 11:08:28;;;;;;;2.95;2.15;;;;;;;33.10;nan;-24729.03;5026169;28;20226;-75
2022/08/07 11:11:03;;;;;;;3.38;2.67;;;;;;;31.97;nan;-24698.63;5031611;28;20175;-75
2022/08/07 11:13:29;;;;;;;3.85;2.72;;;;;;;32.60;nan;-24715.47;5031439;28;20222;-75
2022/08/07 11:15:58;;;;;;;4.30;2.78;;;;;;;32.62;nan;-24716.13;5028249;28;20534;-75
2022/08/07 11:18:34;;;;;;;3.50;2.40;;;;;;;32.29;nan;-24707.19;5030101;28;20243;-75
2022/08/07 11:21:10;;;;;;;4.18;2.47;;;;;;;32.69;nan;-24717.91;5032287;28;20186;-75
2022/08/07 11:23:52;;;;;;;3.05;2.28;;;;;;;32.27;nan;-24706.66;5031815;28;20265;-75
2022/08/07 11:26:26;;;;;;;4.45;2.63;;;;;;;32.62;nan;-24716.00;5030476;28;20548;-75
2022/08/07 11:29:00;;;;;;;3.92;2.50;;;;;;;32.32;nan;-24708.13;5031530;28;20509;-74
2022/08/07 11:31:31;;;;;;;3.50;2.40;;;;;;;32.41;nan;-24710.44;5031700;28;20174;-75
2022/08/07 11:34:03;;;;;;;3.65;2.60;;;;;;;32.53;nan;-24713.56;5031185;28;20175;-75
2022/08/07 11:36:59;;;;;;;3.35;2.55;;;;;;;32.63;nan;-24716.28;5031712;28;20529;-75
2022/08/07 11:40:01;;;;;;;3.22;2.38;;;;;;;32.65;nan;-24716.81;5030902;28;20194;-75
2022/08/07 11:42:57;;;;;;;3.08;2.15;;;;;;;32.47;nan;-24712.06;5032568;28;20541;-75
2022/08/07 11:45:25;;;;;;;3.92;2.50;;;;;;;32.64;nan;-24716.56;5032013;28;20651;-75
2022/08/07 11:48:28;;;;;;;2.72;2.17;;;;;;;32.97;nan;-24725.50;5032701;28;20194;-75
2022/08/07 11:51:18;;;;;;;3.20;2.60;;;;;;;33.11;nan;-24729.16;5037076;28;20190;-75
2022/08/07 11:54:02;;;;;;;6.50;2.80;;;;;;;33.05;nan;-24727.66;5026124;28;20179;-75
2022/08/07 11:56:27;;;;;;;3.50;2.40;;;;;;;33.13;nan;-24729.69;5031242;28;20253;-75
2022/08/07 11:58:58;;;;;;;3.53;2.25;;;;;;;33.25;nan;-24733.09;5032736;28;20645;-74
2022/08/07 12:01:32;;;;;;;3.28;2.55;;;;;;;32.43;nan;-24711.13;5032481;28;20206;-75
2022/08/07 12:04:37;;;;;;;3.85;2.97;;;;;;;32.27;nan;-24706.78;5031613;28;20179;-73
2022/08/07 12:07:18;;;;;;;4.18;3.00;;;;;;;31.90;nan;-24696.72;5031475;28;20178;-74
2022/08/07 12:09:57;;;;;;;4.43;2.80;;;;;;;31.98;nan;-24698.91;5030151;28;20175;-75